MSC Bettina — HPFG — position and weather

sailwx.info

Track history (hours):
 
Tides and Currents Weather Stations Pressure Air Temp Water Temp Dewpoint Dewpoint Depression Visibility Wind Speed Wind Dir Waves Ship Positions

MSC Bettina

Last reported at 2015-Apr-16 02:07 UTC. Time now 2015-Apr-18 13:13 UTC.
Position N 02°07' E 102°05'.

Length 366 m; draft 14.1 m.

Type: Ship (hazmat cat A). MMSI: 352361000.

Date/timePositionNaut miles runAvg speedWind from/ knotsBaromVisibWave heightAir tempDewpointWater temp
2015-Apr-16 02:07N 02°07' E 102°05'1118.7
2015-Apr-16 01:32N 01°60' E 102°13'1817.7
2015-Apr-16 00:31N 01°51' E 102°29'1616.1
2015-Apr-15 23:31N 01°44' E 102°44'1515.2
2015-Apr-15 22:33N 01°36' E 102°56'4816.1
2015-Apr-15 19:33N 01°12' E 103°38'8 8.0
2015-Apr-15 18:33N 01°16' E 103°45'1 1.1
2015-Apr-15 17:29N 01°16' E 103°46'0 0.0
2015-Apr-15 16:29N 01°16' E 103°46'0 0.0
2015-Apr-15 15:11N 01°16' E 103°46'0 0.0
2015-Apr-15 14:26N 01°16' E 103°46'0 0.0
2015-Apr-15 13:29N 01°16' E 103°46'0 0.0
2015-Apr-15 12:23N 01°16' E 103°46'0 0.0
2015-Apr-15 11:26N 01°16' E 103°46'0 0.0
2015-Apr-15 10:32N 01°16' E 103°46'0 0.0
2015-Apr-15 09:29N 01°16' E 103°46'0 0.0
2015-Apr-15 08:32N 01°16' E 103°46'0 0.0
2015-Apr-15 07:29N 01°16' E 103°46'0 0.0
2015-Apr-15 06:32N 01°16' E 103°46'0 0.0
2015-Apr-15 05:17N 01°16' E 103°46'0 0.0
2015-Apr-15 03:08N 01°16' E 103°46'0 0.0
2015-Apr-15 02:20N 01°16' E 103°46'0 0.0
2015-Apr-15 01:27N 01°16' E 103°46'0 0.0
2015-Apr-15 00:32N 01°16' E 103°46'0 0.0
2015-Apr-14 23:29N 01°16' E 103°46'0 0.0
2015-Apr-14 22:32N 01°16' E 103°46'0 0.0
2015-Apr-14 21:29N 01°16' E 103°46'0 0.0
2015-Apr-14 20:29N 01°16' E 103°46'0 0.0
2015-Apr-14 19:26N 01°16' E 103°46'0 0.0
2015-Apr-14 18:20N 01°16' E 103°46'4 4.5
2015-Apr-14 17:33N 01°13' E 103°48'8 7.7
2015-Apr-14 16:32N 01°14' E 103°55'6 5.6
2015-Apr-14 15:33N 01°16' E 104°01'10 9.9
2015-Apr-14 14:33N 01°17' E 104°11'  
2015-Apr-11 15:31N 22°11' E 114°34'15 1.3
2015-Apr-11 04:07N 22°25' E 114°28'815.2
2015-Apr-11 03:33N 22°17' E 114°31'1414.5
2015-Apr-11 02:33N 22°08' E 114°19'1410.6
2015-Apr-11 01:12N 22°16' E 114°06'6 9.4
2015-Apr-11 00:33N 22°21' E 114°02'9 8.9
2015-Apr-10 23:33N 22°24' E 113°53'4 1.7
2015-Apr-10 21:13N 22°28' E 113°53'0 0.0
2015-Apr-10 20:25N 22°28' E 113°53'0 0.0
2015-Apr-10 19:25N 22°28' E 113°53'0 0.0
2015-Apr-10 18:07N 22°28' E 113°53'0 0.0
2015-Apr-10 16:13N 22°28' E 113°53'0 0.0
2015-Apr-10 15:25N 22°28' E 113°53'0 0.0
2015-Apr-10 14:04N 22°28' E 113°53'0 0.0
2015-Apr-10 13:28N 22°28' E 113°53'3 3.4
2015-Apr-10 12:34N 22°25' E 113°53'9 9.1
2015-Apr-10 11:33N 22°21' E 114°02'1110.6
2015-Apr-10 10:30N 22°13' E 114°10'7 7.1
2015-Apr-10 09:33N 22°08' E 114°16'1010.0
2015-Apr-10 08:33N 22°09' E 114°27'1312.8
2015-Apr-10 07:33N 22°10' E 114°41'20018.2
2015-Apr-09 20:33N 23°34' E 117°58'2020.0
2015-Apr-09 19:33N 23°50' E 118°12'1818.1
2015-Apr-09 18:33N 24°06' E 118°19'1514.7
2015-Apr-09 17:33N 24°19' E 118°11'1111.2
2015-Apr-09 16:33N 24°26' E 118°02'0 0.1
2015-Apr-09 15:14N 24°26' E 118°02'0 0.0
2015-Apr-09 14:26N 24°26' E 118°02'0 0.0
2015-Apr-09 13:14N 24°26' E 118°02'0 0.0
2015-Apr-09 12:32N 24°26' E 118°02'0 0.0
2015-Apr-09 11:26N 24°26' E 118°02'0 0.0
2015-Apr-09 06:20N 24°26' E 118°02'0 0.0
2015-Apr-09 04:32N 24°26' E 118°02'2 1.7
2015-Apr-09 03:33N 24°26' E 118°03'9 9.4
2015-Apr-09 02:33N 24°20' E 118°11'9 8.4
2015-Apr-09 01:32N 24°13' E 118°17'1614.6
2015-Apr-09 00:25N 24°16' E 118°35'1416.3
2015-Apr-08 23:33N 24°19' E 118°50'2416.7
2015-Apr-08 22:09N 24°31' E 119°13'35517.1
2015-Apr-08 01:24N 29°25' E 122°56'1719.7
2015-Apr-08 00:33N 29°34' E 122°40'1716.9
2015-Apr-07 23:33N 29°42' E 122°23'1313.5
2015-Apr-07 22:33N 29°52' E 122°12'8 7.5
2015-Apr-07 21:28N 29°53' E 122°03'0 0.0
2015-Apr-07 20:28N 29°53' E 122°03'0 0.0
2015-Apr-07 19:10N 29°53' E 122°03'0 0.0
2015-Apr-07 16:16N 29°53' E 122°03'0 0.0
2015-Apr-07 15:28N 29°53' E 122°03'0 0.0
2015-Apr-07 14:21N 29°53' E 122°03'0 0.0
2015-Apr-07 13:15N 29°53' E 122°03'0 0.0
2015-Apr-07 12:15N 29°53' E 122°03'0 0.0
2015-Apr-07 11:21N 29°53' E 122°03'0 0.0
2015-Apr-07 10:27N 29°53' E 122°03'0 0.0
2015-Apr-07 09:21N 29°53' E 122°03'0 0.0
2015-Apr-07 08:33N 29°53' E 122°03'0 0.0
2015-Apr-07 07:21N 29°53' E 122°03'0 0.0
2015-Apr-07 06:18N 29°53' E 122°03'0 0.0
2015-Apr-07 05:32N 29°53' E 122°03'0 0.0
2015-Apr-07 04:32N 29°53' E 122°03'0 0.0
2015-Apr-07 03:20N 29°53' E 122°03'0 0.0
2015-Apr-07 02:27N 29°53' E 122°03'0 0.0
2015-Apr-07 01:32N 29°53' E 122°03'0 0.0
2015-Apr-07 00:20N 29°53' E 122°03'0 0.0
2015-Apr-06 23:31N 29°53' E 122°03'0 0.0
2015-Apr-06 22:19N 29°53' E 122°03'0 0.0
2015-Apr-06 21:07N 29°53' E 122°03'0 0.0
2015-Apr-06 20:25N 29°53' E 122°03'0 0.0
2015-Apr-06 19:31N 29°53' E 122°03'0 0.0
2015-Apr-06 18:31N 29°53' E 122°03'0 0.0
2015-Apr-06 17:13N 29°53' E 122°03'0 0.0
2015-Apr-06 16:19N 29°53' E 122°03'0 0.0
2015-Apr-06 15:19N 29°53' E 122°03'0 0.0
2015-Apr-06 14:31N 29°53' E 122°03'0 0.0
2015-Apr-06 13:07N 29°53' E 122°03'0 0.0
2015-Apr-06 12:33N 29°53' E 122°03'5 5.3
2015-Apr-06 11:33N 29°55' E 122°08'1211.7
2015-Apr-06 10:32N 29°46' E 122°17'8 7.9
2015-Apr-06 09:33N 29°42' E 122°24'3 0.5
2015-Apr-06 03:22N 29°40' E 122°27'0 0.1
2015-Apr-06 02:16N 29°40' E 122°27'  
Track history (hours):
 
Tides and Currents Weather Stations Pressure Air Temp Water Temp Dewpoint Dewpoint Depression Visibility Wind Speed Wind Dir Waves Ship Positions

MSC Bettina

Last reported at 2015-Apr-16 02:07 UTC. Time now 2015-Apr-18 13:13 UTC.
Position N 02°07' E 102°05'.

Length 366 m; draft 14.1 m.

Type: Ship (hazmat cat A). MMSI: 352361000.

Date/timePositionNaut miles runAvg speedWind from/ knotsBaromVisibWave heightAir tempDewpointWater temp
2015-Apr-16 02:07N 02°07' E 102°05'1118.7
2015-Apr-16 01:32N 01°60' E 102°13'1817.7
2015-Apr-16 00:31N 01°51' E 102°29'1616.1
2015-Apr-15 23:31N 01°44' E 102°44'1515.2
2015-Apr-15 22:33N 01°36' E 102°56'4816.1
2015-Apr-15 19:33N 01°12' E 103°38'8 8.0
2015-Apr-15 18:33N 01°16' E 103°45'1 1.1
2015-Apr-15 17:29N 01°16' E 103°46'0 0.0
2015-Apr-15 16:29N 01°16' E 103°46'0 0.0
2015-Apr-15 15:11N 01°16' E 103°46'0 0.0
2015-Apr-15 14:26N 01°16' E 103°46'0 0.0
2015-Apr-15 13:29N 01°16' E 103°46'0 0.0
2015-Apr-15 12:23N 01°16' E 103°46'0 0.0
2015-Apr-15 11:26N 01°16' E 103°46'0 0.0
2015-Apr-15 10:32N 01°16' E 103°46'0 0.0
2015-Apr-15 09:29N 01°16' E 103°46'0 0.0
2015-Apr-15 08:32N 01°16' E 103°46'0 0.0
2015-Apr-15 07:29N 01°16' E 103°46'0 0.0
2015-Apr-15 06:32N 01°16' E 103°46'0 0.0
2015-Apr-15 05:17N 01°16' E 103°46'0 0.0
2015-Apr-15 03:08N 01°16' E 103°46'0 0.0
2015-Apr-15 02:20N 01°16' E 103°46'0 0.0
2015-Apr-15 01:27N 01°16' E 103°46'0 0.0
2015-Apr-15 00:32N 01°16' E 103°46'0 0.0
2015-Apr-14 23:29N 01°16' E 103°46'0 0.0
2015-Apr-14 22:32N 01°16' E 103°46'0 0.0
2015-Apr-14 21:29N 01°16' E 103°46'0 0.0
2015-Apr-14 20:29N 01°16' E 103°46'0 0.0
2015-Apr-14 19:26N 01°16' E 103°46'0 0.0
2015-Apr-14 18:20N 01°16' E 103°46'4 4.5
2015-Apr-14 17:33N 01°13' E 103°48'8 7.7
2015-Apr-14 16:32N 01°14' E 103°55'6 5.6
2015-Apr-14 15:33N 01°16' E 104°01'10 9.9
2015-Apr-14 14:33N 01°17' E 104°11'  
2015-Apr-11 15:31N 22°11' E 114°34'15 1.3
2015-Apr-11 04:07N 22°25' E 114°28'815.2
2015-Apr-11 03:33N 22°17' E 114°31'1414.5
2015-Apr-11 02:33N 22°08' E 114°19'1410.6
2015-Apr-11 01:12N 22°16' E 114°06'6 9.4
2015-Apr-11 00:33N 22°21' E 114°02'9 8.9
2015-Apr-10 23:33N 22°24' E 113°53'4 1.7
2015-Apr-10 21:13N 22°28' E 113°53'0 0.0
2015-Apr-10 20:25N 22°28' E 113°53'0 0.0
2015-Apr-10 19:25N 22°28' E 113°53'0 0.0
2015-Apr-10 18:07N 22°28' E 113°53'0 0.0
2015-Apr-10 16:13N 22°28' E 113°53'0 0.0
2015-Apr-10 15:25N 22°28' E 113°53'0 0.0
2015-Apr-10 14:04N 22°28' E 113°53'0 0.0
2015-Apr-10 13:28N 22°28' E 113°53'3 3.4
2015-Apr-10 12:34N 22°25' E 113°53'9 9.1
2015-Apr-10 11:33N 22°21' E 114°02'1110.6
2015-Apr-10 10:30N 22°13' E 114°10'7 7.1
2015-Apr-10 09:33N 22°08' E 114°16'1010.0
2015-Apr-10 08:33N 22°09' E 114°27'1312.8
2015-Apr-10 07:33N 22°10' E 114°41'20018.2
2015-Apr-09 20:33N 23°34' E 117°58'2020.0
2015-Apr-09 19:33N 23°50' E 118°12'1818.1
2015-Apr-09 18:33N 24°06' E 118°19'1514.7
2015-Apr-09 17:33N 24°19' E 118°11'1111.2
2015-Apr-09 16:33N 24°26' E 118°02'0 0.1
2015-Apr-09 15:14N 24°26' E 118°02'0 0.0
2015-Apr-09 14:26N 24°26' E 118°02'0 0.0
2015-Apr-09 13:14N 24°26' E 118°02'0 0.0
2015-Apr-09 12:32N 24°26' E 118°02'0 0.0
2015-Apr-09 11:26N 24°26' E 118°02'0 0.0
2015-Apr-09 06:20N 24°26' E 118°02'0 0.0
2015-Apr-09 04:32N 24°26' E 118°02'2 1.7
2015-Apr-09 03:33N 24°26' E 118°03'9 9.4
2015-Apr-09 02:33N 24°20' E 118°11'9 8.4
2015-Apr-09 01:32N 24°13' E 118°17'1614.6
2015-Apr-09 00:25N 24°16' E 118°35'1416.3
2015-Apr-08 23:33N 24°19' E 118°50'2416.7
2015-Apr-08 22:09N 24°31' E 119°13'35517.1
2015-Apr-08 01:24N 29°25' E 122°56'1719.7
2015-Apr-08 00:33N 29°34' E 122°40'1716.9
2015-Apr-07 23:33N 29°42' E 122°23'1313.5
2015-Apr-07 22:33N 29°52' E 122°12'8 7.5
2015-Apr-07 21:28N 29°53' E 122°03'0 0.0
2015-Apr-07 20:28N 29°53' E 122°03'0 0.0
2015-Apr-07 19:10N 29°53' E 122°03'0 0.0
2015-Apr-07 16:16N 29°53' E 122°03'0 0.0
2015-Apr-07 15:28N 29°53' E 122°03'0 0.0
2015-Apr-07 14:21N 29°53' E 122°03'0 0.0
2015-Apr-07 13:15N 29°53' E 122°03'0 0.0
2015-Apr-07 12:15N 29°53' E 122°03'0 0.0
2015-Apr-07 11:21N 29°53' E 122°03'0 0.0
2015-Apr-07 10:27N 29°53' E 122°03'0 0.0
2015-Apr-07 09:21N 29°53' E 122°03'0 0.0
2015-Apr-07 08:33N 29°53' E 122°03'0 0.0
2015-Apr-07 07:21N 29°53' E 122°03'0 0.0
2015-Apr-07 06:18N 29°53' E 122°03'0 0.0
2015-Apr-07 05:32N 29°53' E 122°03'0 0.0
2015-Apr-07 04:32N 29°53' E 122°03'0 0.0
2015-Apr-07 03:20N 29°53' E 122°03'0 0.0
2015-Apr-07 02:27N 29°53' E 122°03'0 0.0
2015-Apr-07 01:32N 29°53' E 122°03'0 0.0
2015-Apr-07 00:20N 29°53' E 122°03'0 0.0
2015-Apr-06 23:31N 29°53' E 122°03'0 0.0
2015-Apr-06 22:19N 29°53' E 122°03'0 0.0
2015-Apr-06 21:07N 29°53' E 122°03'0 0.0
2015-Apr-06 20:25N 29°53' E 122°03'0 0.0
2015-Apr-06 19:31N 29°53' E 122°03'0 0.0
2015-Apr-06 18:31N 29°53' E 122°03'0 0.0
2015-Apr-06 17:13N 29°53' E 122°03'0 0.0
2015-Apr-06 16:19N 29°53' E 122°03'0 0.0
2015-Apr-06 15:19N 29°53' E 122°03'0 0.0
2015-Apr-06 14:31N 29°53' E 122°03'0 0.0
2015-Apr-06 13:07N 29°53' E 122°03'0 0.0
2015-Apr-06 12:33N 29°53' E 122°03'5 5.3
2015-Apr-06 11:33N 29°55' E 122°08'1211.7
2015-Apr-06 10:32N 29°46' E 122°17'8 7.9
2015-Apr-06 09:33N 29°42' E 122°24'3 0.5
2015-Apr-06 03:22N 29°40' E 122°27'0 0.1
2015-Apr-06 02:16N 29°40' E 122°27'  

Dump ship's entire track history